createdAt,value
2018-09-27T04:00:15.688Z,55.90
2018-09-27T04:00:48.467Z,55.90
2018-09-27T04:01:21.063Z,56.20
2018-09-27T04:01:53.668Z,55.70
2018-09-27T04:02:26.267Z,56.30
2018-09-27T04:02:58.852Z,55.80
2018-09-27T04:03:31.441Z,55.90
2018-09-27T04:04:04.048Z,55.80
2018-09-27T04:04:36.656Z,55.90
2018-09-27T04:05:09.275Z,55.60
2018-09-27T04:05:41.929Z,55.70
2018-09-27T04:06:14.765Z,55.80
2018-09-27T04:06:47.368Z,56.10
2018-09-27T04:07:19.976Z,56.60
2018-09-27T04:08:00.175Z,55.80
2018-09-27T04:08:32.785Z,56.20
2018-09-27T04:09:07.043Z,56.80
2018-09-27T04:09:39.650Z,56.40
2018-09-27T04:10:12.277Z,55.90
2018-09-27T04:10:44.948Z,55.80
2018-09-27T04:11:17.578Z,56.50
2018-09-27T04:11:50.242Z,55.80
2018-09-27T04:12:22.862Z,55.60
2018-09-27T04:12:55.493Z,56.20
2018-09-27T04:13:28.108Z,56.00
2018-09-27T04:14:00.732Z,55.90
2018-09-27T04:14:33.329Z,56.20
2018-09-27T04:15:06.228Z,55.90
2018-09-27T04:15:38.851Z,56.10
2018-09-27T04:16:11.488Z,55.90
2018-09-27T04:16:44.103Z,57.00
2018-09-27T04:17:16.710Z,56.20
2018-09-27T04:17:49.388Z,56.30
2018-09-27T04:18:21.980Z,56.50
2018-09-27T04:18:54.567Z,56.40
2018-09-27T04:19:27.168Z,56.10
2018-09-27T04:19:59.785Z,57.00
2018-09-27T04:20:37.195Z,56.80
2018-09-27T04:21:09.804Z,56.20
2018-09-27T04:21:42.488Z,56.10
2018-09-27T04:22:15.117Z,56.00
2018-09-27T04:22:47.730Z,55.80
2018-09-27T04:23:22.477Z,56.00
2018-09-27T04:23:55.175Z,56.20
2018-09-27T04:24:27.718Z,56.10
2018-09-27T04:25:00.319Z,56.60
2018-09-27T04:25:32.941Z,56.50
2018-09-27T04:26:05.813Z,56.50
2018-09-27T04:26:38.420Z,56.50
2018-09-27T04:27:11.067Z,57.50
2018-09-27T04:27:43.754Z,57.00
2018-09-27T04:28:16.398Z,57.40
2018-09-27T04:28:49.043Z,56.70
2018-09-27T04:29:21.676Z,57.10
2018-09-27T04:29:54.388Z,56.80
2018-09-27T04:30:27.001Z,56.70
2018-09-27T04:30:59.620Z,56.70
2018-09-27T04:31:32.217Z,56.60
2018-09-27T04:32:04.842Z,57.20
2018-09-27T04:32:37.483Z,57.20
2018-09-27T04:33:10.097Z,57.60
2018-09-27T04:33:42.741Z,56.70
2018-09-27T04:34:15.349Z,56.80
2018-09-27T04:34:47.955Z,57.00
2018-09-27T04:35:20.580Z,56.80
2018-09-27T04:35:53.192Z,56.70
2018-09-27T04:36:25.824Z,56.60
2018-09-27T04:36:58.443Z,57.40
2018-09-27T04:37:31.090Z,56.80
2018-09-27T04:38:03.949Z,57.20
2018-09-27T04:38:36.556Z,57.30
2018-09-27T04:39:10.685Z,57.70
2018-09-27T04:39:43.328Z,57.60
2018-09-27T04:40:15.953Z,57.60
2018-09-27T04:40:48.595Z,57.50
2018-09-27T04:41:21.252Z,57.50
2018-09-27T04:41:53.863Z,58.20
2018-09-27T04:42:26.480Z,57.40
2018-09-27T04:42:59.119Z,57.40
2018-09-27T04:43:31.768Z,57.60
2018-09-27T04:44:04.387Z,57.60
2018-09-27T04:44:37.012Z,58.20
2018-09-27T04:45:09.629Z,57.90
2018-09-27T04:45:42.280Z,57.70
2018-09-27T04:46:14.888Z,57.60
2018-09-27T04:46:47.531Z,57.40
2018-09-27T04:47:20.156Z,57.40
2018-09-27T04:47:52.777Z,57.60
2018-09-27T04:48:25.396Z,57.40
2018-09-27T04:48:58.033Z,57.50
2018-09-27T04:49:30.677Z,57.80
2018-09-27T04:50:03.319Z,57.60
2018-09-27T04:50:35.929Z,57.90
2018-09-27T04:51:08.552Z,57.70
2018-09-27T04:51:41.196Z,57.50
2018-09-27T04:52:13.800Z,57.50
2018-09-27T04:52:46.400Z,57.70
2018-09-27T04:53:19.004Z,57.60
2018-09-27T04:53:51.601Z,57.80
2018-09-27T04:54:24.304Z,57.80
2018-09-27T04:54:56.921Z,57.50
2018-09-27T04:55:29.548Z,57.70
2018-09-27T04:56:02.190Z,57.80
2018-09-27T04:56:34.787Z,57.70
2018-09-27T04:57:07.433Z,57.60
2018-09-27T04:57:40.052Z,57.50
2018-09-27T04:58:12.764Z,57.60
2018-09-27T04:58:45.384Z,57.40
2018-09-27T04:59:18.004Z,57.70
2018-09-27T04:59:50.674Z,57.60
2018-09-27T05:00:23.305Z,57.50
2018-09-27T05:00:55.909Z,57.70
2018-09-27T05:01:28.523Z,57.70
2018-09-27T05:02:01.128Z,57.90
2018-09-27T05:02:33.791Z,57.70
2018-09-27T05:03:06.445Z,57.70
2018-09-27T05:03:39.101Z,57.80
2018-09-27T05:04:11.653Z,57.70
2018-09-27T05:04:44.260Z,57.60
2018-09-27T05:05:16.905Z,57.60
2018-09-27T05:05:49.510Z,57.60
2018-09-27T05:06:22.164Z,57.80
2018-09-27T05:06:54.728Z,57.80
2018-09-27T05:07:27.324Z,57.80
2018-09-27T05:07:59.928Z,57.60
2018-09-27T05:08:32.515Z,57.70
2018-09-27T05:09:06.180Z,57.50
2018-09-27T05:09:38.831Z,58.60
2018-09-27T05:10:11.460Z,57.80
2018-09-27T05:10:44.118Z,58.20
2018-09-27T05:11:16.759Z,58.80
2018-09-27T05:11:49.377Z,58.30
2018-09-27T05:12:21.989Z,58.20
2018-09-27T05:12:54.632Z,58.30
2018-09-27T05:13:27.276Z,57.90
2018-09-27T05:13:59.968Z,57.90
2018-09-27T05:14:32.557Z,58.40
2018-09-27T05:15:05.182Z,58.70
2018-09-27T05:15:37.858Z,58.40
2018-09-27T05:16:10.452Z,58.60
2018-09-27T05:16:43.052Z,58.50
2018-09-27T05:17:15.675Z,58.10
2018-09-27T05:17:48.284Z,58.20
2018-09-27T05:18:20.908Z,57.80
2018-09-27T05:18:53.545Z,58.70
2018-09-27T05:19:26.141Z,58.60
2018-09-27T05:19:58.736Z,58.20
2018-09-27T05:20:31.369Z,58.10
2018-09-27T05:21:04.009Z,58.40
2018-09-27T05:21:36.718Z,58.10
2018-09-27T05:22:09.301Z,58.10
2018-09-27T05:22:41.908Z,58.10
2018-09-27T05:23:14.506Z,58.10
2018-09-27T05:23:47.120Z,58.30
2018-09-27T05:24:19.713Z,58.00
2018-09-27T05:24:52.321Z,57.90
2018-09-27T05:25:24.933Z,57.90
2018-09-27T05:25:57.769Z,58.40
2018-09-27T05:26:30.379Z,58.20
2018-09-27T05:27:03.049Z,58.20
2018-09-27T05:27:35.707Z,58.10
2018-09-27T05:28:08.410Z,57.90
2018-09-27T05:28:41.009Z,58.10
2018-09-27T05:29:13.616Z,58.50
2018-09-27T05:29:46.489Z,58.20
2018-09-27T05:30:19.076Z,58.10
2018-09-27T05:30:51.684Z,58.30
2018-09-27T05:31:24.291Z,58.60
2018-09-27T05:31:56.904Z,58.40
2018-09-27T05:32:29.528Z,58.40
2018-09-27T05:33:02.137Z,58.10
2018-09-27T05:33:34.758Z,58.50
2018-09-27T05:34:07.364Z,58.20
2018-09-27T05:34:39.969Z,58.10
2018-09-27T05:35:12.564Z,58.00
2018-09-27T05:35:45.162Z,58.10
2018-09-27T05:36:17.793Z,58.30
2018-09-27T05:36:50.410Z,58.20
2018-09-27T05:37:23.001Z,58.80
2018-09-27T05:37:55.649Z,58.20
2018-09-27T05:38:28.258Z,58.20
2018-09-27T05:39:00.855Z,58.40
2018-09-27T05:39:33.471Z,58.40
2018-09-27T05:40:06.104Z,58.20
2018-09-27T05:40:38.706Z,58.20
2018-09-27T05:41:11.333Z,58.30
2018-09-27T05:41:43.927Z,58.50
2018-09-27T05:42:16.533Z,58.40
2018-09-27T05:42:49.143Z,58.30
2018-09-27T05:43:21.784Z,58.40
2018-09-27T05:43:54.394Z,58.40
2018-09-27T05:44:27.039Z,58.40
2018-09-27T05:44:59.649Z,58.40
2018-09-27T05:45:32.247Z,58.40
2018-09-27T05:46:04.945Z,58.50
2018-09-27T05:46:37.567Z,58.50
2018-09-27T05:47:10.188Z,58.80
2018-09-27T05:47:42.787Z,58.60
2018-09-27T05:48:15.393Z,58.70
2018-09-27T05:48:48.037Z,59.50
2018-09-27T05:49:20.632Z,59.00
2018-09-27T05:49:53.312Z,59.40
2018-09-27T05:50:25.883Z,59.20
2018-09-27T05:50:58.484Z,59.30
2018-09-27T05:51:31.135Z,58.80
2018-09-27T05:52:03.763Z,59.40
2018-09-27T05:52:36.648Z,59.10
2018-09-27T05:53:09.261Z,58.90
2018-09-27T05:53:41.856Z,58.70
2018-09-27T05:54:14.484Z,58.80
2018-09-27T05:54:47.107Z,58.80
2018-09-27T05:55:19.732Z,58.90
2018-09-27T05:55:52.399Z,59.00
2018-09-27T05:56:24.953Z,59.20
2018-09-27T05:56:57.575Z,59.20
2018-09-27T05:57:30.184Z,58.90
2018-09-27T05:58:02.837Z,59.00
2018-09-27T05:58:35.505Z,59.30
2018-09-27T05:59:08.452Z,59.40
2018-09-27T05:59:41.109Z,59.30
2018-09-27T06:00:13.731Z,59.10
2018-09-27T06:00:46.366Z,58.90
2018-09-27T06:01:18.990Z,59.40
2018-09-27T06:01:51.603Z,59.40
2018-09-27T06:02:24.237Z,59.10
2018-09-27T06:02:56.858Z,59.00
2018-09-27T06:03:29.485Z,59.00
2018-09-27T06:04:02.095Z,59.00
2018-09-27T06:04:34.707Z,59.20
2018-09-27T06:05:07.389Z,58.90
2018-09-27T06:05:39.995Z,59.30
2018-09-27T06:06:12.601Z,59.30
2018-09-27T06:06:45.209Z,59.70
2018-09-27T06:07:17.827Z,59.80
2018-09-27T06:07:50.453Z,59.70
2018-09-27T06:08:23.057Z,59.60
2018-09-27T06:08:55.678Z,59.40
2018-09-27T06:09:28.300Z,59.50
2018-09-27T06:10:00.954Z,59.30
2018-09-27T06:10:33.608Z,59.40
2018-09-27T06:11:06.230Z,59.80
2018-09-27T06:11:38.828Z,59.50
2018-09-27T06:12:11.425Z,59.30
2018-09-27T06:12:44.034Z,60.00
2018-09-27T06:13:16.659Z,60.10
2018-09-27T06:13:49.272Z,60.10
2018-09-27T06:14:21.875Z,59.80
2018-09-27T06:14:54.500Z,59.70
2018-09-27T06:15:27.137Z,59.60
2018-09-27T06:15:59.823Z,59.70
2018-09-27T06:16:32.444Z,59.50
2018-09-27T06:17:05.373Z,59.70
2018-09-27T06:17:37.990Z,59.50
2018-09-27T06:18:10.592Z,59.50
2018-09-27T06:18:43.207Z,59.50
2018-09-27T06:19:15.823Z,59.70
2018-09-27T06:19:48.512Z,59.50
2018-09-27T06:20:21.068Z,59.50
2018-09-27T06:20:53.695Z,60.00
2018-09-27T06:21:26.328Z,60.00
2018-09-27T06:21:58.932Z,60.00
2018-09-27T06:22:31.532Z,60.00
2018-09-27T06:23:04.160Z,60.10
2018-09-27T06:23:36.765Z,60.20
2018-09-27T06:24:09.375Z,59.90
2018-09-27T06:24:42.013Z,59.70
2018-09-27T06:25:14.615Z,59.70
2018-09-27T06:25:47.226Z,59.80
2018-09-27T06:26:19.814Z,59.80
2018-09-27T06:26:52.776Z,60.00
2018-09-27T06:27:25.400Z,59.90
2018-09-27T06:27:58.058Z,60.00
2018-09-27T06:28:30.661Z,60.30
2018-09-27T06:29:03.309Z,60.80
2018-09-27T06:29:35.917Z,60.00
2018-09-27T06:30:08.336Z,60.00
2018-09-27T06:30:40.941Z,60.10
2018-09-27T06:31:13.548Z,60.10
2018-09-27T06:31:46.164Z,60.00
2018-09-27T06:32:19.013Z,59.90
2018-09-27T06:32:51.628Z,60.10
2018-09-27T06:33:24.273Z,60.10
2018-09-27T06:33:56.852Z,60.40
2018-09-27T06:34:29.468Z,60.40
2018-09-27T06:35:02.100Z,60.20
2018-09-27T06:35:34.695Z,59.80
2018-09-27T06:36:07.305Z,60.00
2018-09-27T06:36:39.929Z,59.90
2018-09-27T06:37:12.540Z,59.90
2018-09-27T06:37:45.172Z,60.00
2018-09-27T06:38:17.835Z,59.90
2018-09-27T06:38:50.469Z,59.90
2018-09-27T06:39:23.072Z,60.10
2018-09-27T06:39:55.679Z,60.50
2018-09-27T06:40:28.277Z,60.10
2018-09-27T06:41:00.877Z,60.40
2018-09-27T06:41:33.552Z,60.30
2018-09-27T06:42:06.137Z,60.10
2018-09-27T06:42:38.740Z,61.00
2018-09-27T06:43:11.386Z,60.60
2018-09-27T06:43:44.008Z,60.40
2018-09-27T06:44:16.604Z,60.40
2018-09-27T06:44:49.208Z,60.80
2018-09-27T06:45:21.810Z,60.90
2018-09-27T06:45:54.421Z,60.70
2018-09-27T06:46:27.011Z,60.70
2018-09-27T06:46:59.617Z,60.70
2018-09-27T06:47:32.216Z,60.60
2018-09-27T06:48:04.863Z,60.90
2018-09-27T06:48:37.516Z,61.00
2018-09-27T06:49:10.147Z,60.80
2018-09-27T06:49:42.753Z,60.80
2018-09-27T06:50:15.364Z,60.60
2018-09-27T06:50:47.952Z,60.80
2018-09-27T06:51:20.532Z,60.80
2018-09-27T06:51:53.213Z,61.10
2018-09-27T06:52:25.919Z,61.30
2018-09-27T06:52:58.517Z,61.00
2018-09-27T06:53:31.124Z,61.10
2018-09-27T06:54:03.796Z,61.40
2018-09-27T06:54:36.393Z,61.00
2018-09-27T06:55:09.128Z,61.30
2018-09-27T06:55:41.780Z,61.60
2018-09-27T06:56:14.316Z,61.80
2018-09-27T06:56:46.916Z,61.40
2018-09-27T06:57:19.519Z,61.20
2018-09-27T06:57:52.120Z,61.20
2018-09-27T06:58:24.892Z,61.20
2018-09-27T06:58:57.528Z,61.50
2018-09-27T06:59:30.164Z,61.80
2018-09-27T07:00:03.098Z,61.50
2018-09-27T07:00:35.681Z,61.30
2018-09-27T07:01:08.409Z,61.20
2018-09-27T07:01:41.011Z,61.40
2018-09-27T07:02:13.624Z,61.50
2018-09-27T07:02:46.235Z,61.30
2018-09-27T07:03:19.080Z,61.40
2018-09-27T07:03:51.686Z,62.00
2018-09-27T07:04:24.324Z,61.50
2018-09-27T07:04:56.961Z,61.50
2018-09-27T07:05:30.045Z,61.40
2018-09-27T07:06:02.653Z,61.50
2018-09-27T07:06:35.268Z,61.40
2018-09-27T07:07:07.985Z,61.70
2018-09-27T07:07:40.584Z,61.50
2018-09-27T07:08:13.189Z,61.60
2018-09-27T07:08:45.793Z,61.60
2018-09-27T07:09:18.445Z,61.40
2018-09-27T07:09:51.068Z,61.60
2018-09-27T07:10:23.768Z,61.90
2018-09-27T07:10:56.411Z,61.80
2018-09-27T07:11:29.016Z,61.60
2018-09-27T07:12:01.711Z,61.70
2018-09-27T07:12:34.321Z,61.60
2018-09-27T07:13:06.872Z,61.70
2018-09-27T07:13:39.490Z,61.80
2018-09-27T07:14:12.095Z,61.90
2018-09-27T07:14:44.709Z,61.90
2018-09-27T07:15:17.328Z,62.10
2018-09-27T07:15:49.970Z,61.80
2018-09-27T07:16:22.602Z,61.80
2018-09-27T07:16:55.217Z,62.20
2018-09-27T07:17:27.835Z,62.10
2018-09-27T07:18:00.836Z,62.30
2018-09-27T07:18:33.503Z,62.20
2018-09-27T07:19:06.393Z,62.30
2018-09-27T07:19:39.026Z,62.50
2018-09-27T07:20:12.010Z,62.30
2018-09-27T07:20:44.661Z,62.50
2018-09-27T07:21:17.270Z,62.10
2018-09-27T07:21:49.880Z,61.90
2018-09-27T07:22:22.487Z,61.70
2018-09-27T07:22:55.084Z,61.90
2018-09-27T07:23:27.695Z,61.90
2018-09-27T07:24:00.424Z,61.90
2018-09-27T07:24:33.023Z,61.70
2018-09-27T07:25:05.829Z,62.00
2018-09-27T07:25:38.350Z,62.30
2018-09-27T07:26:10.964Z,62.90
2018-09-27T07:26:43.651Z,62.30
2018-09-27T07:27:16.240Z,62.50
2018-09-27T07:27:48.864Z,62.20
2018-09-27T07:28:21.491Z,62.50
2018-09-27T07:28:54.112Z,63.00
2018-09-27T07:29:26.724Z,62.60
2018-09-27T07:29:59.322Z,62.50
2018-09-27T07:30:31.992Z,62.80
2018-09-27T07:31:04.657Z,62.90
2018-09-27T07:31:37.232Z,62.80
2018-09-27T07:32:09.917Z,62.60
2018-09-27T07:32:42.877Z,63.30
2018-09-27T07:33:15.537Z,62.60
2018-09-27T07:33:48.204Z,62.70
2018-09-27T07:34:20.831Z,62.80
2018-09-27T07:34:53.428Z,62.70
2018-09-27T07:35:26.033Z,63.30
2018-09-27T07:35:58.643Z,63.60
2018-09-27T07:36:31.287Z,63.10
2018-09-27T07:37:03.953Z,62.90
2018-09-27T07:37:36.576Z,62.50
2018-09-27T07:38:09.189Z,62.30
2018-09-27T07:38:41.839Z,62.50
2018-09-27T07:39:14.453Z,62.60
2018-09-27T07:39:47.069Z,62.50
2018-09-27T07:40:19.688Z,62.70
2018-09-27T07:40:52.334Z,62.90
2018-09-27T07:41:24.949Z,63.60
2018-09-27T07:41:57.560Z,62.60
2018-09-27T07:42:30.161Z,62.80
2018-09-27T07:43:02.815Z,62.70
2018-09-27T07:43:35.433Z,62.50
2018-09-27T07:44:08.700Z,62.80
2018-09-27T07:44:41.361Z,63.00
2018-09-27T07:45:13.964Z,62.90
2018-09-27T07:45:46.590Z,62.50
2018-09-27T07:46:19.191Z,62.60
2018-09-27T07:46:51.800Z,62.30
2018-09-27T07:47:24.418Z,62.30
2018-09-27T07:47:57.050Z,62.40
2018-09-27T07:48:29.729Z,62.60
2018-09-27T07:49:02.326Z,62.50
2018-09-27T07:49:34.917Z,62.40
2018-09-27T07:50:07.553Z,62.90
2018-09-27T07:50:40.213Z,63.00
2018-09-27T07:51:12.802Z,63.50
2018-09-27T07:51:45.423Z,62.60
2018-09-27T07:52:18.125Z,62.40
2018-09-27T07:52:50.748Z,62.50
2018-09-27T07:53:23.352Z,62.40
2018-09-27T07:53:56.803Z,62.70
2018-09-27T07:54:29.433Z,63.10
2018-09-27T07:55:02.037Z,62.90
2018-09-27T07:55:34.653Z,62.60
2018-09-27T07:56:07.424Z,63.10
2018-09-27T07:56:40.084Z,63.20
2018-09-27T07:57:12.718Z,63.40
2018-09-27T07:57:45.324Z,62.90
2018-09-27T07:58:17.940Z,62.40
2018-09-27T07:58:50.540Z,62.30
2018-09-27T07:59:23.189Z,62.70
2018-09-27T07:59:55.801Z,62.40
2018-09-27T08:00:28.408Z,62.20
2018-09-27T08:01:01.020Z,62.70
2018-09-27T08:01:33.659Z,62.70
2018-09-27T08:02:06.276Z,62.90
2018-09-27T08:02:38.995Z,62.80
2018-09-27T08:03:11.574Z,62.90
2018-09-27T08:03:44.157Z,63.10
2018-09-27T08:04:16.908Z,63.00
2018-09-27T08:04:49.496Z,62.50
2018-09-27T08:05:22.109Z,62.90
2018-09-27T08:05:54.733Z,62.50
2018-09-27T08:06:27.340Z,62.50
2018-09-27T08:06:59.949Z,62.50
2018-09-27T08:07:32.551Z,62.40
2018-09-27T08:08:05.496Z,62.40
2018-09-27T08:08:38.162Z,62.40
2018-09-27T08:09:10.711Z,62.80
2018-09-27T08:09:43.325Z,63.50
2018-09-27T08:10:15.977Z,62.60
2018-09-27T08:10:48.592Z,62.70
2018-09-27T08:11:21.359Z,62.70
2018-09-27T08:11:53.853Z,62.70
2018-09-27T08:12:26.439Z,62.40
2018-09-27T08:12:59.036Z,62.40
2018-09-27T08:13:31.632Z,62.30
2018-09-27T08:14:04.319Z,62.40
2018-09-27T08:14:36.942Z,62.40
2018-09-27T08:15:09.558Z,62.50
2018-09-27T08:15:42.208Z,62.60
2018-09-27T08:16:14.816Z,62.60
2018-09-27T08:16:47.453Z,62.90
2018-09-27T08:17:20.107Z,63.00
2018-09-27T08:17:52.688Z,63.60
2018-09-27T08:18:25.285Z,63.40
2018-09-27T08:18:57.908Z,63.20
2018-09-27T08:19:30.507Z,63.80
2018-09-27T08:20:03.495Z,63.60
2018-09-27T08:20:36.186Z,63.60
2018-09-27T08:21:08.881Z,63.60
2018-09-27T08:21:41.390Z,63.00
2018-09-27T08:22:14.014Z,62.80
2018-09-27T08:22:46.638Z,62.60
2018-09-27T08:23:19.281Z,62.60
2018-09-27T08:23:51.886Z,62.30
2018-09-27T08:24:24.505Z,62.40
2018-09-27T08:24:57.109Z,63.10
2018-09-27T08:25:29.712Z,62.90
2018-09-27T08:26:02.328Z,62.80
2018-09-27T08:26:34.997Z,63.00
2018-09-27T08:27:07.614Z,63.00
2018-09-27T08:27:40.237Z,63.00
2018-09-27T08:28:12.864Z,62.90
2018-09-27T08:28:45.472Z,62.70
2018-09-27T08:29:18.076Z,62.60
2018-09-27T08:29:52.032Z,62.90
2018-09-27T08:30:24.663Z,62.60
2018-09-27T08:30:57.381Z,63.00
2018-09-27T08:31:29.903Z,63.50
2018-09-27T08:32:02.540Z,63.60
2018-09-27T08:32:35.222Z,63.50
2018-09-27T08:33:07.792Z,63.60
2018-09-27T08:33:40.424Z,62.90
2018-09-27T08:34:13.047Z,62.70
2018-09-27T08:34:45.656Z,63.20
2018-09-27T08:35:18.280Z,63.10
2018-09-27T08:35:50.996Z,63.70
2018-09-27T08:37:26.980Z,64.00
2018-09-27T08:37:59.591Z,63.90
2018-09-27T08:38:32.253Z,63.40
2018-09-27T08:39:07.604Z,63.70
2018-09-27T08:39:40.224Z,63.20
2018-09-27T08:40:12.829Z,62.90
2018-09-27T08:40:45.438Z,63.00
2018-09-27T08:41:18.033Z,63.20
2018-09-27T08:41:50.640Z,63.60
2018-09-27T08:42:23.265Z,64.20
2018-09-27T08:42:55.906Z,63.90
2018-09-27T08:43:28.517Z,63.40
2018-09-27T08:44:01.125Z,63.30
2018-09-27T08:44:33.800Z,63.60
2018-09-27T08:45:06.661Z,64.00
2018-09-27T08:45:39.125Z,63.60
2018-09-27T08:46:11.707Z,63.30
2018-09-27T08:46:44.313Z,63.60
2018-09-27T08:47:16.924Z,64.00
2018-09-27T08:47:49.537Z,64.20
2018-09-27T08:48:22.160Z,64.10
2018-09-27T08:48:54.771Z,64.40
2018-09-27T08:49:27.400Z,64.50
2018-09-27T08:49:59.999Z,64.10
2018-09-27T08:50:32.605Z,63.70
2018-09-27T08:51:05.246Z,63.90
2018-09-27T08:51:38.141Z,63.40
2018-09-27T08:52:10.768Z,63.80
2018-09-27T08:52:43.384Z,64.20
2018-09-27T08:53:15.985Z,63.60
2018-09-27T08:53:48.660Z,63.40
2018-09-27T08:54:21.265Z,62.70
2018-09-27T08:54:53.863Z,62.70
2018-09-27T08:55:26.558Z,63.10
2018-09-27T08:55:59.213Z,63.30
2018-09-27T08:56:31.839Z,63.30
2018-09-27T08:57:04.452Z,63.30
2018-09-27T08:57:37.104Z,63.50
2018-09-27T08:58:09.696Z,64.00
2018-09-27T08:58:42.317Z,63.10
2018-09-27T08:59:15.253Z,62.80
2018-09-27T08:59:47.856Z,62.80
2018-09-27T09:00:20.529Z,63.40
2018-09-27T09:00:53.139Z,62.90
2018-09-27T09:01:25.859Z,62.90
2018-09-27T09:01:58.584Z,62.70
2018-09-27T09:02:31.207Z,63.10
2018-09-27T09:03:03.812Z,63.20
2018-09-27T09:03:36.556Z,63.30
2018-09-27T09:04:09.053Z,62.60
2018-09-27T09:04:41.716Z,63.00
2018-09-27T09:05:14.315Z,62.70
2018-09-27T09:05:47.088Z,62.10
2018-09-27T09:06:19.693Z,62.20
2018-09-27T09:06:52.297Z,62.20
2018-09-27T09:07:24.960Z,62.40
2018-09-27T09:07:57.544Z,62.40
2018-09-27T09:08:30.158Z,62.90
2018-09-27T09:09:03.288Z,62.70
2018-09-27T09:09:35.917Z,62.40
2018-09-27T09:10:08.595Z,62.30
2018-09-27T09:10:41.216Z,62.10
2018-09-27T09:11:13.828Z,62.20
2018-09-27T09:11:46.428Z,62.30
2018-09-27T09:12:19.029Z,62.40
2018-09-27T09:12:51.628Z,62.70
2018-09-27T09:13:24.259Z,62.70
2018-09-27T09:13:56.857Z,62.50
2018-09-27T09:14:29.461Z,62.70
2018-09-27T09:15:02.075Z,62.90
2018-09-27T09:15:34.740Z,63.30
2018-09-27T09:16:07.454Z,63.60
2018-09-27T09:17:19.276Z,62.90
2018-09-27T09:17:51.874Z,63.90
2018-09-27T09:18:24.489Z,62.80
2018-09-27T09:18:57.100Z,63.20
2018-09-27T09:19:29.734Z,63.30
2018-09-27T09:20:02.421Z,62.80
2018-09-27T09:20:35.062Z,62.90
2018-09-27T09:21:07.682Z,62.60
2018-09-27T09:21:40.415Z,62.70
2018-09-27T09:22:12.964Z,62.70
2018-09-27T09:22:45.573Z,62.90
2018-09-27T09:23:18.187Z,62.60
2018-09-27T09:23:50.797Z,62.60
2018-09-27T09:24:23.508Z,63.20
2018-09-27T09:24:56.112Z,63.10
2018-09-27T09:25:28.732Z,62.20
2018-09-27T09:26:01.473Z,62.50
2018-09-27T09:26:34.033Z,62.60
2018-09-27T09:27:06.643Z,62.70
2018-09-27T09:27:39.288Z,63.30
2018-09-27T09:28:11.900Z,63.60
2018-09-27T09:28:44.513Z,63.40
2018-09-27T09:29:17.159Z,63.80
2018-09-27T09:29:49.849Z,64.30
2018-09-27T09:30:22.432Z,63.30
2018-09-27T09:30:55.041Z,63.80
2018-09-27T09:31:27.818Z,64.00
2018-09-27T09:32:00.424Z,63.40
2018-09-27T09:32:33.016Z,63.60
2018-09-27T09:33:05.668Z,64.30
2018-09-27T09:33:38.302Z,63.10
2018-09-27T09:34:10.906Z,63.60
2018-09-27T09:34:43.521Z,64.00
2018-09-27T09:35:16.134Z,63.50
2018-09-27T09:35:48.806Z,63.50
2018-09-27T09:36:21.636Z,63.50
2018-09-27T09:36:54.324Z,63.80
2018-09-27T09:37:26.937Z,63.50
2018-09-27T09:37:59.540Z,64.10
2018-09-27T09:38:32.132Z,64.40
2018-09-27T09:39:06.683Z,63.70
2018-09-27T09:39:39.314Z,63.10
2018-09-27T09:40:11.933Z,63.40
2018-09-27T09:40:44.549Z,63.50
2018-09-27T09:41:17.168Z,63.10
2018-09-27T09:41:49.776Z,63.20
2018-09-27T09:42:22.424Z,63.20
2018-09-27T09:42:55.029Z,62.80
2018-09-27T09:43:27.625Z,63.00
2018-09-27T09:44:00.240Z,62.90
2018-09-27T09:44:32.856Z,63.30
2018-09-27T09:45:05.628Z,63.10
2018-09-27T09:45:38.240Z,63.60
2018-09-27T09:46:10.904Z,63.80
2018-09-27T09:46:43.560Z,63.40
2018-09-27T09:47:16.221Z,63.60
2018-09-27T09:47:48.864Z,63.50
2018-09-27T09:48:21.481Z,63.10
2018-09-27T09:48:54.088Z,63.20
2018-09-27T09:49:26.690Z,63.60
2018-09-27T09:49:59.342Z,63.60
2018-09-27T09:50:31.940Z,62.90
2018-09-27T09:51:04.605Z,62.80
2018-09-27T09:51:37.234Z,63.30
2018-09-27T09:52:09.860Z,63.00
2018-09-27T09:52:42.461Z,63.50
2018-09-27T09:53:15.100Z,63.20
2018-09-27T09:53:47.726Z,63.40
2018-09-27T09:54:20.336Z,62.80
2018-09-27T09:54:52.941Z,63.40
2018-09-27T09:55:25.565Z,63.90
2018-09-27T09:55:58.190Z,63.80
2018-09-27T09:56:30.800Z,64.00
2018-09-27T09:57:03.416Z,64.10
2018-09-27T09:57:36.015Z,63.60
2018-09-27T09:58:08.612Z,63.60
2018-09-27T09:58:41.276Z,62.80
2018-09-27T09:59:13.876Z,62.60
2018-09-27T09:59:46.497Z,62.40
2018-09-27T10:00:19.112Z,62.30
2018-09-27T10:00:51.732Z,62.70
2018-09-27T10:01:24.339Z,63.30
2018-09-27T10:01:56.944Z,63.30
2018-09-27T10:02:29.663Z,62.80
2018-09-27T10:03:02.284Z,62.30
2018-09-27T10:03:34.889Z,62.50
2018-09-27T10:04:07.561Z,63.40
2018-09-27T10:04:40.191Z,63.50
2018-09-27T10:05:12.796Z,63.50
2018-09-27T10:05:45.413Z,63.30
2018-09-27T10:06:18.028Z,62.80
2018-09-27T10:06:50.662Z,62.70
2018-09-27T10:07:23.269Z,62.80
2018-09-27T10:07:55.896Z,62.70
2018-09-27T10:08:28.496Z,62.30
2018-09-27T10:09:01.197Z,62.80
2018-09-27T10:09:33.776Z,62.70
2018-09-27T10:10:06.549Z,62.80
2018-09-27T10:10:39.180Z,63.10
2018-09-27T10:11:11.787Z,62.80
2018-09-27T10:11:44.396Z,62.50
2018-09-27T10:12:17.004Z,62.10
2018-09-27T10:12:49.604Z,62.20
2018-09-27T10:13:22.246Z,62.00
2018-09-27T10:13:54.848Z,62.20
2018-09-27T10:14:27.457Z,62.80
2018-09-27T10:15:00.096Z,62.40
2018-09-27T10:15:32.710Z,61.90
2018-09-27T10:16:05.320Z,62.10
2018-09-27T10:16:37.916Z,62.10
2018-09-27T10:17:10.535Z,62.10
2018-09-27T10:17:43.130Z,62.60
2018-09-27T10:18:15.753Z,63.10
2018-09-27T10:18:48.388Z,63.00
2018-09-27T10:19:20.996Z,62.90
2018-09-27T10:19:53.596Z,62.70
2018-09-27T10:20:26.260Z,63.20
2018-09-27T10:20:58.880Z,63.00
2018-09-27T10:21:31.600Z,62.90
2018-09-27T10:22:04.221Z,62.80
2018-09-27T10:22:36.820Z,62.70
2018-09-27T10:23:09.829Z,62.30
2018-09-27T10:23:42.464Z,62.40
2018-09-27T10:24:15.072Z,63.00
2018-09-27T10:24:47.680Z,62.50
2018-09-27T10:25:20.302Z,62.70
2018-09-27T10:25:52.952Z,62.40
2018-09-27T10:26:25.563Z,62.10
2018-09-27T10:26:58.180Z,61.90
2018-09-27T10:27:30.805Z,61.80
2018-09-27T10:28:03.467Z,61.40
2018-09-27T10:28:36.073Z,61.40
2018-09-27T10:29:08.685Z,62.10
2018-09-27T10:29:41.299Z,61.30
2018-09-27T10:30:14.377Z,61.30
2018-09-27T10:30:47.008Z,61.40
2018-09-27T10:31:19.673Z,61.20
2018-09-27T10:31:52.296Z,60.80
2018-09-27T10:32:24.901Z,61.50
2018-09-27T10:32:57.529Z,61.40
2018-09-27T10:33:30.140Z,61.50
2018-09-27T10:34:02.760Z,61.20
2018-09-27T10:34:35.437Z,61.20
2018-09-27T10:35:08.022Z,61.30
2018-09-27T10:35:40.633Z,61.20
2018-09-27T10:36:13.267Z,61.10
2018-09-27T10:36:45.905Z,61.30
2018-09-27T10:37:18.527Z,61.10
2018-09-27T10:37:51.135Z,61.10
2018-09-27T10:38:23.948Z,60.70
2018-09-27T10:38:56.568Z,60.90
2018-09-27T10:39:29.180Z,61.00
2018-09-27T10:40:01.804Z,61.30
2018-09-27T10:40:34.409Z,61.60
2018-09-27T10:41:07.028Z,61.50
2018-09-27T10:41:39.835Z,62.10
2018-09-27T10:42:12.489Z,61.60
2018-09-27T10:42:45.131Z,61.70
2018-09-27T10:43:17.720Z,61.10
2018-09-27T10:43:50.325Z,61.40
2018-09-27T10:44:22.931Z,61.50
2018-09-27T10:44:55.754Z,61.60
2018-09-27T10:45:28.360Z,61.50
2018-09-27T10:46:00.965Z,61.20
2018-09-27T10:46:33.580Z,61.00
2018-09-27T10:47:06.475Z,60.80
2018-09-27T10:47:39.120Z,60.70
2018-09-27T10:48:11.736Z,60.70
2018-09-27T10:48:44.336Z,60.60
2018-09-27T10:49:16.945Z,60.50
2018-09-27T10:49:49.524Z,60.10
2018-09-27T10:50:22.112Z,59.90
2018-09-27T10:50:54.735Z,60.00
2018-09-27T10:51:27.405Z,59.50
2018-09-27T10:51:59.995Z,59.70
2018-09-27T10:52:32.596Z,59.60
2018-09-27T10:53:05.413Z,59.80
2018-09-27T10:53:38.021Z,60.10
2018-09-27T10:54:10.848Z,60.10
2018-09-27T10:54:43.463Z,60.30
2018-09-27T10:55:16.068Z,60.20
2018-09-27T10:55:48.692Z,60.60
2018-09-27T10:56:21.317Z,60.80
2018-09-27T10:56:53.912Z,61.10
2018-09-27T10:57:26.529Z,60.80
2018-09-27T10:57:59.143Z,61.10
2018-09-27T10:58:31.776Z,61.10
2018-09-27T10:59:04.433Z,60.60
2018-09-27T10:59:37.085Z,60.50
2018-09-27T11:00:14.209Z,60.30
2018-09-27T11:00:46.820Z,60.00
2018-09-27T11:01:19.428Z,60.20
2018-09-27T11:01:52.045Z,60.40
2018-09-27T11:03:28.037Z,60.30